Flight Track Log - Related Links

Times and Time Zones

All times are in EDT time to prevent confusion due to time zone crossing. See the QXE2329 flight status page for this flight to view local times or setup timezone preferences in your user account.

Time Position Orientation Groundspeed Altitude Reporting Facility
EDT Latitude Longitude Course Direction KTS MPH feet Rate Location/Type
Tue 09:51:00 AM 46.9490 -122.3904 180° South  Level Estimated
Tue 09:52:00 AM 46.8775 -122.4016 180° South  Level Estimated
Tue 09:53:00 AM 46.8105 -122.3632 159° South  Level FlightAware Approximate
Tue 09:54:00 AM 46.7435 -122.3248 159° South  Level FlightAware Approximate
Tue 09:55:00 AM 46.6725 -122.3419 180° South  Level Estimated
Tue 09:56:00 AM 46.6008 -122.3308 174° South  Level FlightAware Approximate
Tue 09:57:00 AM 46.5429 -122.3219 174° South  Level FlightAware Approximate
Tue 09:58:00 AM 46.4850 -122.3130 174° South  Level FlightAware Approximate
Tue 09:59:00 AM 46.4271 -122.3042 174° South  Level FlightAware Approximate
Tue 10:00:00 AM 46.3674 -122.3000 180° South  Level FlightAware Approximate
Tue 10:01:00 AM 46.3092 -122.3000 180° South  Level FlightAware Approximate
Tue 10:02:00 AM 46.2509 -122.3000 180° South  Level FlightAware Approximate
Tue 10:03:00 AM 46.1971 -122.3318 203° Southwest  Level FlightAware Approximate
Tue 10:04:00 AM 46.1423 -122.3598 196° South  Level FlightAware Approximate
Tue 10:05:00 AM 46.0862 -122.3822 196° South  Level FlightAware Approximate
Tue 10:06:00 AM 46.0412 -122.4169 196° South  Level FlightAware Approximate
Tue 10:07:00 AM 45.9857 -122.4419 203° Southwest  Level FlightAware Approximate
Tue 10:08:00 AM 45.9320 -122.4742 203° Southwest  Level FlightAware Approximate
Tue 10:09:00 AM 45.8869 -122.5251 224° Southwest  Level FlightAware Approximate
Tue 10:10:00 AM 45.8451 -122.5835 224° Southwest  Level FlightAware Approximate
Tue 10:11:00 AM 45.7732 -122.6602 215° Southwest  Level FlightAware Approximate
Tue 10:12:00 AM 45.7440 -122.7653 296° West  Level FlightAware Approximate
Tue 10:13:00 AM 45.7342 -122.6323 96° East  Level FlightAware Approximate
Tue 10:14:00 AM 45.7242 -122.4995 96° East  Level FlightAware Approximate
Tue 10:15:00 AM 45.6930 -122.4059 190° South  Level FlightAware Approximate
Tue 10:16:00 AM 45.6011 -122.4289 190° South  Level FlightAware Approximate
Tue 10:17:00 AM 45.5211 -122.4588 306° West  Level FlightAware Approximate
Tue 10:18:00 AM 45.5806 -122.5778 306° West  Level FlightAware Approximate

Login

Don't have an account? Register now (free) for customized features, flight alerts, and more!